Time;durP1;ratioP1;P1;durP2;ratioP2;P2;SDS_P1;SDS_P2;PMS_P1;PMS_P2;Temp;Humidity;BMP_temperature;BMP_pressure;BME280_temperature;BME280_humidity;BME280_pressure;Samples;Min_cycle;Max_cycle;Signal;HPM_P1;HPM_P2
2021/09/23 00:00:05;;;;;;;3.00;2.80;;;14.20;99.90;;;;;;6084903;23;20639;-78
2021/09/23 00:02:47;;;;;;;2.70;2.50;;;14.20;99.90;;;;;;6086074;23;20210;-78
2021/09/23 00:05:16;;;;;;;2.90;2.70;;;14.10;99.90;;;;;;6085961;23;20208;-79
2021/09/23 00:07:45;;;;;;;3.38;3.10;;;14.10;99.90;;;;;;6086165;23;20205;-79
2021/09/23 00:10:15;;;;;;;2.97;2.78;;;14.10;99.90;;;;;;6086086;23;20209;-79
2021/09/23 00:12:43;;;;;;;3.20;2.90;;;14.10;99.90;;;;;;6085435;23;20214;-79
2021/09/23 00:15:14;;;;;;;2.92;2.72;;;14.10;99.90;;;;;;6085521;23;20209;-78
2021/09/23 00:17:47;;;;;;;2.85;2.65;;;14.10;99.90;;;;;;6085551;23;20216;-79
2021/09/23 00:20:16;;;;;;;3.25;2.95;;;14.10;99.90;;;;;;6086186;23;20289;-79
2021/09/23 00:22:44;;;;;;;3.25;2.97;;;14.10;99.90;;;;;;6086913;23;20233;-79
2021/09/23 00:25:12;;;;;;;3.40;3.10;;;14.10;99.90;;;;;;6086026;23;20206;-79
2021/09/23 00:27:39;;;;;;;3.88;3.53;;;14.00;99.90;;;;;;6085531;23;20256;-78
2021/09/23 00:30:09;;;;;;;3.67;3.38;;;14.00;99.90;;;;;;6085344;23;20257;-79
2021/09/23 00:32:36;;;;;;;3.10;2.90;;;14.00;99.90;;;;;;6086216;23;20593;-78
2021/09/23 00:35:03;;;;;;;3.40;3.10;;;14.00;99.90;;;;;;6086504;23;20256;-78
2021/09/23 00:37:30;;;;;;;2.90;2.70;;;14.00;99.90;;;;;;6086435;23;20579;-78
2021/09/23 00:39:58;;;;;;;2.97;2.78;;;14.00;99.90;;;;;;6085239;23;20212;-78
2021/09/23 00:42:26;;;;;;;3.20;3.00;;;14.00;99.90;;;;;;6087140;23;20260;-78
2021/09/23 00:44:58;;;;;;;3.15;2.95;;;14.00;99.90;;;;;;6086217;23;20205;-78
2021/09/23 00:47:25;;;;;;;2.95;2.75;;;14.00;99.90;;;;;;6083623;23;20210;-78
2021/09/23 00:49:52;;;;;;;2.80;2.60;;;14.10;99.90;;;;;;6085825;23;20252;-78
2021/09/23 00:52:20;;;;;;;3.10;2.90;;;14.10;99.90;;;;;;6085469;23;20726;-78
2021/09/23 00:54:47;;;;;;;3.08;2.88;;;14.10;99.90;;;;;;6084911;23;20280;-79
2021/09/23 00:57:17;;;;;;;2.95;2.75;;;14.10;99.90;;;;;;6084856;23;20205;-78
2021/09/23 00:59:45;;;;;;;2.92;2.72;;;14.10;99.90;;;;;;6084237;23;20590;-79
2021/09/23 01:02:12;;;;;;;3.13;2.65;;;14.10;99.90;;;;;;6086079;23;20209;-79
2021/09/23 01:04:43;;;;;;;2.85;2.65;;;14.10;99.90;;;;;;6085172;23;20718;-78
2021/09/23 01:07:10;;;;;;;2.75;2.55;;;14.10;99.90;;;;;;6085546;23;20690;-79
2021/09/23 01:09:38;;;;;;;2.25;2.10;;;14.10;99.90;;;;;;6086346;23;20205;-78
2021/09/23 01:12:06;;;;;;;2.38;2.22;;;14.10;99.90;;;;;;6086026;23;20205;-79
2021/09/23 01:14:34;;;;;;;2.30;2.10;;;14.10;99.90;;;;;;6084723;23;20205;-79
2021/09/23 01:17:03;;;;;;;2.03;1.92;;;14.10;99.90;;;;;;6084935;23;20209;-78
2021/09/23 01:19:30;;;;;;;2.70;2.50;;;14.10;99.90;;;;;;6085512;23;20685;-78
2021/09/23 01:21:59;;;;;;;2.42;2.22;;;14.00;99.90;;;;;;6085420;23;20257;-78
2021/09/23 01:24:26;;;;;;;2.80;2.60;;;14.00;99.90;;;;;;6085987;23;20260;-78
2021/09/23 01:26:56;;;;;;;3.00;2.80;;;14.00;99.90;;;;;;6084570;23;20209;-78
2021/09/23 01:29:24;;;;;;;3.92;2.65;;;14.00;99.90;;;;;;6085743;23;20201;-78
2021/09/23 01:31:51;;;;;;;2.38;2.28;;;14.00;99.90;;;;;;6085753;23;20210;-78
2021/09/23 01:34:19;;;;;;;3.13;2.83;;;13.90;99.90;;;;;;6085286;23;20201;-78
2021/09/23 01:36:46;;;;;;;2.58;2.47;;;13.90;99.90;;;;;;6084565;23;20209;-79
2021/09/23 01:39:19;;;;;;;2.83;2.63;;;13.90;99.90;;;;;;6085559;23;20269;-78
2021/09/23 01:41:46;;;;;;;2.60;2.40;;;13.90;99.90;;;;;;6084326;23;20209;-78
2021/09/23 01:44:13;;;;;;;3.17;2.88;;;13.80;99.90;;;;;;6085158;23;20209;-78
2021/09/23 01:46:40;;;;;;;2.50;2.30;;;13.80;99.90;;;;;;6084089;23;20268;-79
2021/09/23 01:49:08;;;;;;;2.35;2.20;;;13.80;99.90;;;;;;6085164;23;20205;-78
2021/09/23 01:51:35;;;;;;;2.38;2.28;;;13.70;99.90;;;;;;6085523;23;20598;-78
2021/09/23 01:54:03;;;;;;;3.28;2.83;;;13.70;99.90;;;;;;6084218;23;20256;-78
2021/09/23 01:56:31;;;;;;;2.42;2.08;;;13.70;99.90;;;;;;6085322;23;20265;-78
2021/09/23 01:58:58;;;;;;;2.72;2.53;;;13.70;99.90;;;;;;6083884;23;20209;-79
2021/09/23 02:01:26;;;;;;;2.42;2.33;;;13.70;99.90;;;;;;6087568;23;20212;-78
2021/09/23 02:03:53;;;;;;;2.45;2.35;;;13.80;99.90;;;;;;6084736;23;20220;-78
2021/09/23 02:06:20;;;;;;;2.70;2.50;;;13.80;99.90;;;;;;6084775;23;20206;-78
2021/09/23 02:08:47;;;;;;;2.60;2.40;;;13.80;99.90;;;;;;6084686;23;20255;-76
2021/09/23 02:11:14;;;;;;;2.60;2.40;;;13.80;99.90;;;;;;6084809;23;20213;-76
2021/09/23 02:13:43;;;;;;;3.05;2.75;;;13.80;99.90;;;;;;6085685;23;20662;-76
2021/09/23 02:16:10;;;;;;;2.22;2.13;;;13.90;99.90;;;;;;6085708;23;20575;-76
2021/09/23 02:18:37;;;;;;;2.55;2.35;;;13.90;99.90;;;;;;6084458;23;20217;-76
2021/09/23 02:21:05;;;;;;;2.50;2.30;;;13.90;99.90;;;;;;6085050;23;20261;-76
2021/09/23 02:23:32;;;;;;;3.53;2.60;;;13.90;99.90;;;;;;6086412;23;20276;-76
2021/09/23 02:25:59;;;;;;;2.95;2.70;;;13.90;99.90;;;;;;6083549;23;20670;-76
2021/09/23 02:28:26;;;;;;;3.00;2.80;;;14.00;99.90;;;;;;6085494;23;20201;-76
2021/09/23 02:30:55;;;;;;;2.47;2.28;;;13.90;99.90;;;;;;6085716;23;20532;-76
2021/09/23 02:33:22;;;;;;;4.10;3.13;;;13.90;99.90;;;;;;6087152;23;20718;-77
2021/09/23 02:35:49;;;;;;;3.10;2.90;;;13.90;99.90;;;;;;6085981;23;20213;-76
2021/09/23 02:38:17;;;;;;;2.60;2.40;;;13.80;99.90;;;;;;6084624;23;20276;-76
2021/09/23 02:40:44;;;;;;;2.60;2.40;;;13.80;99.90;;;;;;6084920;23;20273;-76
2021/09/23 02:43:11;;;;;;;2.33;2.22;;;13.80;99.90;;;;;;6085362;23;20307;-76
2021/09/23 02:45:38;;;;;;;2.95;2.47;;;13.80;99.90;;;;;;6085506;23;20210;-76
2021/09/23 02:48:06;;;;;;;2.63;2.42;;;13.80;99.90;;;;;;6084224;23;20228;-76
2021/09/23 02:50:33;;;;;;;5.57;2.33;;;13.90;99.90;;;;;;6085366;23;20217;-76
2021/09/23 02:53:00;;;;;;;2.70;2.50;;;13.90;99.90;;;;;;6085563;23;20618;-76
2021/09/23 02:55:27;;;;;;;2.63;2.42;;;14.00;99.90;;;;;;6085155;23;20820;-76
2021/09/23 02:57:55;;;;;;;2.50;2.30;;;14.00;99.90;;;;;;6085229;23;20214;-76
2021/09/23 03:00:22;;;;;;;2.65;2.45;;;14.00;99.90;;;;;;6046997;23;20214;-76
2021/09/23 03:02:49;;;;;;;2.70;2.50;;;14.00;99.90;;;;;;6085185;23;20256;-76
2021/09/23 03:05:17;;;;;;;2.50;2.30;;;14.00;99.90;;;;;;6085118;23;22857;-76
2021/09/23 03:07:44;;;;;;;2.97;2.63;;;14.00;99.90;;;;;;6085168;23;20264;-76
2021/09/23 03:10:12;;;;;;;3.67;2.58;;;14.00;99.90;;;;;;6086558;23;20671;-76
2021/09/23 03:12:39;;;;;;;2.85;2.65;;;14.00;99.90;;;;;;6087242;23;20205;-76
2021/09/23 03:15:07;;;;;;;2.50;2.30;;;14.00;99.90;;;;;;6086652;23;20276;-76
2021/09/23 03:17:34;;;;;;;2.58;2.38;;;14.00;99.90;;;;;;6084909;23;21077;-77
2021/09/23 03:20:01;;;;;;;2.50;2.30;;;13.90;99.90;;;;;;6086263;23;20205;-76
2021/09/23 03:22:29;;;;;;;2.50;2.30;;;13.90;99.90;;;;;;6086598;23;20212;-76
2021/09/23 03:24:56;;;;;;;2.50;2.30;;;13.90;99.90;;;;;;6086655;23;20217;-76
2021/09/23 03:27:23;;;;;;;2.38;2.22;;;13.80;99.90;;;;;;6084633;23;20233;-76
2021/09/23 03:29:51;;;;;;;2.88;2.67;;;13.80;99.90;;;;;;6086295;23;20257;-76
2021/09/23 03:32:18;;;;;;;2.50;2.30;;;13.70;99.90;;;;;;6087162;23;20206;-75
2021/09/23 03:34:45;;;;;;;2.33;2.15;;;13.60;99.90;;;;;;6086452;23;20241;-76
2021/09/23 03:37:12;;;;;;;2.40;2.20;;;13.50;99.90;;;;;;6085654;23;20674;-76
2021/09/23 03:39:40;;;;;;;2.40;2.20;;;13.50;99.90;;;;;;6086176;23;20216;-76
2021/09/23 03:42:07;;;;;;;2.95;2.10;;;13.50;99.90;;;;;;6086057;23;20260;-76
2021/09/23 03:44:35;;;;;;;2.47;2.28;;;13.50;99.90;;;;;;6083098;23;20213;-76
2021/09/23 03:47:02;;;;;;;2.22;2.10;;;13.50;99.90;;;;;;6085953;23;20229;-76
2021/09/23 03:49:29;;;;;;;2.78;2.58;;;13.50;99.90;;;;;;6084197;23;20280;-76
2021/09/23 03:51:56;;;;;;;2.60;2.40;;;13.40;99.90;;;;;;6084985;23;20694;-76
2021/09/23 03:54:23;;;;;;;2.38;2.20;;;13.40;99.90;;;;;;6086675;23;20209;-76
2021/09/23 03:56:52;;;;;;;2.30;2.13;;;13.30;99.90;;;;;;6084388;23;20655;-76
2021/09/23 03:59:19;;;;;;;2.13;2.03;;;13.20;99.90;;;;;;6084233;23;20245;-76
2021/09/23 04:01:48;;;;;;;1.80;1.70;;;13.20;99.90;;;;;;6086367;23;20594;-76
2021/09/23 04:04:15;;;;;;;1.98;1.88;;;13.30;99.90;;;;;;6085578;23;20268;-76
2021/09/23 04:06:43;;;;;;;1.75;1.65;;;13.30;99.90;;;;;;6083692;23;20260;-76
2021/09/23 04:09:11;;;;;;;2.13;1.92;;;13.40;99.90;;;;;;6084633;23;20288;-76
2021/09/23 04:11:38;;;;;;;2.00;1.90;;;13.40;99.90;;;;;;6085575;23;20583;-76
2021/09/23 04:14:08;;;;;;;2.58;2.20;;;13.40;99.90;;;;;;6086154;23;20257;-76
2021/09/23 04:16:35;;;;;;;2.28;2.08;;;13.40;99.90;;;;;;6084457;23;20238;-76
2021/09/23 04:19:03;;;;;;;2.20;2.10;;;13.40;99.90;;;;;;6086067;23;20206;-76
2021/09/23 04:21:30;;;;;;;2.40;2.20;;;13.50;99.90;;;;;;6086558;23;20666;-76
2021/09/23 04:23:57;;;;;;;2.13;2.03;;;13.50;99.90;;;;;;6085241;23;20667;-76
2021/09/23 04:26:24;;;;;;;2.00;1.90;;;13.40;99.90;;;;;;6085469;23;20206;-76
2021/09/23 04:28:51;;;;;;;2.10;1.90;;;13.40;99.90;;;;;;6084706;23;20209;-76
2021/09/23 04:31:20;;;;;;;2.08;1.98;;;13.40;99.90;;;;;;6085405;23;20205;-76
2021/09/23 04:33:47;;;;;;;2.00;1.90;;;13.50;99.90;;;;;;6085043;23;20209;-76
2021/09/23 04:36:14;;;;;;;2.22;2.08;;;13.50;99.90;;;;;;6085919;23;20205;-76
2021/09/23 04:38:41;;;;;;;2.10;2.00;;;13.50;99.90;;;;;;6083622;23;20697;-76
2021/09/23 04:41:11;;;;;;;2.17;2.03;;;13.50;99.90;;;;;;6084986;23;20216;-76
2021/09/23 04:43:39;;;;;;;2.22;2.00;;;13.50;99.90;;;;;;6084846;23;20210;-76
2021/09/23 04:46:06;;;;;;;1.85;1.75;;;13.50;99.90;;;;;;6085516;23;20260;-76
2021/09/23 04:48:35;;;;;;;1.90;1.80;;;13.60;99.90;;;;;;6084490;23;20281;-76
2021/09/23 04:51:02;;;;;;;2.22;2.00;;;13.60;99.90;;;;;;6084387;23;20201;-76
2021/09/23 04:53:29;;;;;;;1.85;1.75;;;13.60;99.90;;;;;;6085739;23;20213;-76
2021/09/23 04:55:56;;;;;;;1.85;1.75;;;13.50;99.90;;;;;;6085051;23;20545;-76
2021/09/23 04:58:23;;;;;;;1.98;1.88;;;13.50;99.90;;;;;;6085321;23;20260;-76
2021/09/23 05:00:50;;;;;;;1.90;1.80;;;13.50;99.90;;;;;;6082193;23;20592;-77
2021/09/23 05:03:18;;;;;;;2.03;1.92;;;13.50;99.90;;;;;;6086314;23;20256;-78
2021/09/23 05:05:47;;;;;;;2.30;1.83;;;13.50;99.90;;;;;;6083711;23;20688;-77
2021/09/23 05:08:14;;;;;;;2.83;2.38;;;13.50;99.90;;;;;;6085314;23;20725;-76
2021/09/23 05:10:41;;;;;;;3.10;2.17;;;13.40;99.90;;;;;;6083487;23;20213;-76
2021/09/23 05:13:08;;;;;;;2.35;2.20;;;13.30;99.90;;;;;;6085846;23;20252;-77
2021/09/23 05:15:36;;;;;;;2.22;2.03;;;13.20;99.90;;;;;;6086869;23;20220;-78
2021/09/23 05:18:04;;;;;;;2.00;1.90;;;13.10;99.90;;;;;;6084509;23;20212;-76
2021/09/23 05:20:31;;;;;;;2.78;2.10;;;13.10;99.90;;;;;;6084951;23;20272;-77
2021/09/23 05:22:59;;;;;;;2.60;2.40;;;13.00;99.90;;;;;;6084979;23;20256;-76
2021/09/23 05:25:28;;;;;;;2.60;2.40;;;13.00;99.90;;;;;;6085705;23;20209;-76
2021/09/23 05:27:55;;;;;;;2.10;2.00;;;12.90;99.90;;;;;;6084100;23;20280;-76
2021/09/23 05:30:22;;;;;;;2.25;2.05;;;12.80;99.90;;;;;;6085509;23;20197;-76
2021/09/23 05:32:50;;;;;;;2.28;2.08;;;12.80;99.90;;;;;;6084115;23;20206;-76
2021/09/23 05:35:17;;;;;;;2.17;2.05;;;12.80;99.90;;;;;;6085273;23;20254;-76
2021/09/23 05:37:44;;;;;;;2.38;2.17;;;12.90;99.90;;;;;;6084318;23;20272;-76
2021/09/23 05:40:14;;;;;;;2.05;1.95;;;13.00;99.90;;;;;;6083995;23;20578;-76
2021/09/23 05:42:42;;;;;;;2.40;2.25;;;13.00;99.90;;;;;;6085577;23;20249;-76
2021/09/23 05:45:11;;;;;;;2.17;2.00;;;13.10;99.90;;;;;;6083863;23;20272;-76
2021/09/23 05:47:39;;;;;;;2.55;1.95;;;13.10;99.90;;;;;;6084014;23;20219;-76
2021/09/23 05:50:07;;;;;;;2.30;2.10;;;13.20;99.90;;;;;;6083814;23;20327;-76
2021/09/23 05:52:35;;;;;;;2.33;1.90;;;13.30;99.90;;;;;;6085472;23;20209;-76
2021/09/23 05:55:02;;;;;;;2.63;2.13;;;13.30;99.90;;;;;;6084442;23;20205;-76
2021/09/23 05:57:34;;;;;;;2.10;2.00;;;13.40;99.90;;;;;;6084537;23;20722;-76
2021/09/23 06:00:02;;;;;;;2.47;2.28;;;13.40;99.90;;;;;;6084434;23;20236;-76
2021/09/23 06:02:29;;;;;;;2.25;2.05;;;13.40;99.90;;;;;;6083361;23;20213;-76
2021/09/23 06:04:56;;;;;;;2.50;2.30;;;13.50;99.90;;;;;;6086190;23;20256;-77
2021/09/23 06:07:23;;;;;;;2.20;2.08;;;13.40;99.90;;;;;;6085621;23;20201;-76
2021/09/23 06:09:50;;;;;;;2.35;2.15;;;13.50;99.90;;;;;;6083877;23;20484;-77
2021/09/23 06:12:17;;;;;;;2.33;2.13;;;13.40;99.90;;;;;;6084964;23;20224;-76
2021/09/23 06:14:46;;;;;;;2.08;1.98;;;13.40;99.90;;;;;;6083563;23;20213;-76
2021/09/23 06:17:13;;;;;;;2.30;2.20;;;13.40;99.90;;;;;;6084214;23;20205;-76
2021/09/23 06:19:41;;;;;;;2.75;2.55;;;13.40;99.90;;;;;;6085327;23;20209;-76
2021/09/23 06:22:08;;;;;;;1.95;1.85;;;13.40;99.90;;;;;;6084413;23;20263;-77
2021/09/23 06:24:35;;;;;;;2.05;1.95;;;13.50;99.90;;;;;;6083761;23;20241;-76
2021/09/23 06:27:02;;;;;;;2.63;2.30;;;13.50;99.90;;;;;;6084448;23;20206;-76
2021/09/23 06:29:29;;;;;;;2.45;2.25;;;13.60;99.90;;;;;;6085095;23;20276;-76
2021/09/23 06:31:58;;;;;;;2.70;2.50;;;13.50;99.90;;;;;;6085086;23;20205;-76
2021/09/23 06:34:25;;;;;;;2.50;2.30;;;13.50;99.90;;;;;;6085142;23;20205;-76
2021/09/23 06:36:52;;;;;;;1.90;1.80;;;13.50;99.90;;;;;;6045798;23;20213;-76
2021/09/23 06:39:19;;;;;;;2.40;2.20;;;13.40;99.90;;;;;;6084957;23;20224;-76
2021/09/23 06:41:46;;;;;;;2.13;2.03;;;13.40;99.90;;;;;;6086088;23;20209;-76
2021/09/23 06:44:13;;;;;;;2.47;2.33;;;13.40;99.90;;;;;;6086485;23;20266;-76
2021/09/23 06:46:41;;;;;;;2.53;2.33;;;13.50;99.90;;;;;;6046047;23;20241;-76
2021/09/23 06:49:09;;;;;;;2.30;2.10;;;13.60;99.90;;;;;;6085148;23;20217;-76
2021/09/23 06:51:36;;;;;;;2.45;2.25;;;13.60;99.90;;;;;;6085713;23;20666;-76
2021/09/23 06:54:03;;;;;;;2.47;2.25;;;13.60;99.90;;;;;;6087888;23;20201;-76
2021/09/23 06:56:30;;;;;;;2.30;2.10;;;13.60;99.90;;;;;;6085318;23;20209;-77
2021/09/23 06:58:57;;;;;;;2.45;2.25;;;13.60;99.90;;;;;;6087115;23;20910;-76
2021/09/23 07:01:24;;;;;;;2.00;1.80;;;13.60;99.90;;;;;;6085720;23;20217;-76
2021/09/23 07:03:51;;;;;;;2.30;2.20;;;13.70;99.90;;;;;;6086771;23;20201;-76
2021/09/23 07:06:20;;;;;;;2.40;2.22;;;13.70;99.90;;;;;;6085814;23;20205;-76
2021/09/23 07:08:47;;;;;;;2.60;2.40;;;13.80;99.90;;;;;;6086290;23;20217;-76
2021/09/23 07:11:14;;;;;;;2.40;2.20;;;14.00;99.90;;;;;;6085503;23;20614;-76
2021/09/23 07:13:41;;;;;;;2.78;2.45;;;14.10;99.90;;;;;;6085497;23;20981;-76
2021/09/23 07:16:08;;;;;;;2.92;2.42;;;14.40;99.90;;;;;;6085834;23;20224;-76
2021/09/23 07:18:36;;;;;;;2.40;2.20;;;14.60;99.90;;;;;;6085546;23;20268;-76
2021/09/23 07:21:05;;;;;;;2.33;2.13;;;14.70;99.90;;;;;;6086479;23;20285;-76
2021/09/23 07:23:33;;;;;;;2.33;2.13;;;14.70;99.90;;;;;;6084902;23;20236;-76
2021/09/23 07:26:00;;;;;;;2.40;2.20;;;14.90;99.90;;;;;;6085240;23;20516;-76
2021/09/23 07:28:27;;;;;;;2.60;2.40;;;15.20;99.90;;;;;;6086045;23;20221;-76
2021/09/23 07:30:55;;;;;;;2.10;2.00;;;15.40;99.90;;;;;;6086120;23;20206;-76
2021/09/23 07:33:22;;;;;;;2.95;2.58;;;16.10;99.90;;;;;;6049448;23;20212;-76
2021/09/23 07:35:49;;;;;;;2.33;2.13;;;16.90;99.90;;;;;;6085247;23;20260;-76
2021/09/23 07:38:16;;;;;;;2.92;2.47;;;17.50;99.90;;;;;;6085763;23;20285;-76
2021/09/23 07:40:44;;;;;;;2.55;2.35;;;17.70;99.90;;;;;;6085771;23;20264;-76
2021/09/23 07:43:11;;;;;;;2.55;2.35;;;17.80;99.90;;;;;;6087661;23;20205;-75
2021/09/23 07:45:38;;;;;;;2.40;2.20;;;18.00;99.90;;;;;;6085829;23;20210;-76
2021/09/23 07:48:06;;;;;;;2.60;2.40;;;17.70;99.90;;;;;;6086544;23;20205;-76
2021/09/23 07:50:33;;;;;;;2.78;2.50;;;17.70;99.90;;;;;;6085192;23;20217;-76
2021/09/23 07:53:00;;;;;;;2.88;2.40;;;17.90;99.90;;;;;;6086834;23;20600;-76
2021/09/23 07:55:27;;;;;;;3.15;2.70;;;18.10;99.90;;;;;;6087394;23;20592;-76
2021/09/23 07:57:56;;;;;;;2.20;2.10;;;18.40;99.90;;;;;;6086264;23;20209;-76
2021/09/23 08:00:23;;;;;;;3.10;2.50;;;18.80;99.90;;;;;;6085234;23;20208;-75
2021/09/23 08:02:51;;;;;;;2.75;2.50;;;19.10;99.90;;;;;;6086277;23;20260;-76
2021/09/23 08:05:19;;;;;;;2.40;2.13;;;19.00;99.90;;;;;;6086896;23;20547;-76
2021/09/23 08:07:48;;;;;;;2.45;2.25;;;19.20;99.90;;;;;;6084621;23;20213;-76
2021/09/23 08:10:15;;;;;;;1.90;1.80;;;19.40;99.90;;;;;;6084804;23;20522;-76
2021/09/23 08:12:43;;;;;;;2.50;2.30;;;19.60;99.90;;;;;;6084100;23;20209;-76
2021/09/23 08:15:13;;;;;;;2.50;2.20;;;20.00;99.90;;;;;;6083958;23;20205;-76
2021/09/23 08:17:40;;;;;;;2.78;2.50;;;20.10;99.90;;;;;;6084631;23;20288;-76
2021/09/23 08:20:08;;;;;;;2.65;2.38;;;19.80;99.90;;;;;;6084185;23;20205;-76
2021/09/23 08:22:35;;;;;;;3.25;2.17;;;19.70;99.90;;;;;;6086994;23;20213;-76
2021/09/23 08:25:03;;;;;;;2.50;2.30;;;19.80;99.90;;;;;;6086199;23;20480;-76
2021/09/23 08:27:30;;;;;;;5.13;2.42;;;20.00;99.90;;;;;;6086006;23;20218;-76
2021/09/23 08:29:58;;;;;;;2.33;2.13;;;20.20;99.90;;;;;;6086245;23;20209;-76
2021/09/23 08:32:27;;;;;;;2.78;2.40;;;20.20;99.90;;;;;;6086042;23;20209;-76
2021/09/23 08:34:54;;;;;;;2.25;2.03;;;20.30;99.90;;;;;;6087023;23;20205;-76
2021/09/23 08:37:21;;;;;;;4.30;2.75;;;20.40;99.90;;;;;;6085878;23;20205;-76
2021/09/23 08:39:49;;;;;;;2.85;2.10;;;20.40;99.90;;;;;;6085948;23;20274;-76
2021/09/23 08:42:17;;;;;;;2.33;2.15;;;20.30;99.90;;;;;;6085544;23;21204;-76
2021/09/23 08:44:44;;;;;;;2.60;2.40;;;20.30;99.90;;;;;;6085098;23;20209;-76
2021/09/23 08:47:11;;;;;;;2.40;2.17;;;20.50;99.90;;;;;;6085095;23;20601;-76
2021/09/23 08:49:40;;;;;;;2.38;2.20;;;20.70;99.90;;;;;;6086612;23;20213;-76
2021/09/23 08:52:07;;;;;;;2.90;2.28;;;20.80;99.90;;;;;;6085585;23;20669;-76
2021/09/23 08:54:34;;;;;;;2.40;2.20;;;20.60;99.90;;;;;;6086292;23;20216;-76
2021/09/23 08:57:02;;;;;;;2.45;2.17;;;20.60;99.90;;;;;;6085106;23;20205;-76
2021/09/23 08:59:30;;;;;;;2.35;2.15;;;20.90;99.90;;;;;;6086291;23;20280;-76
2021/09/23 09:01:58;;;;;;;2.40;2.20;;;21.20;99.90;;;;;;6084126;23;20244;-76
2021/09/23 09:04:32;;;;;;;2.30;2.10;;;21.50;99.90;;;;;;6087146;23;20205;-76
2021/09/23 09:07:02;;;;;;;2.28;2.08;;;21.80;99.90;;;;;;6084737;23;20304;-77
2021/09/23 09:09:29;;;;;;;2.72;2.50;;;21.70;99.90;;;;;;6085826;23;20217;-76
2021/09/23 09:11:58;;;;;;;3.20;2.50;;;21.60;99.90;;;;;;6085708;23;20581;-76
2021/09/23 09:14:29;;;;;;;2.83;2.10;;;21.70;99.90;;;;;;6086878;23;20209;-76
2021/09/23 09:17:01;;;;;;;3.60;2.47;;;21.90;99.90;;;;;;6084126;23;20209;-76
2021/09/23 09:19:46;;;;;;;3.03;2.00;;;21.70;99.90;;;;;;6086368;23;20217;-76
2021/09/23 09:22:16;;;;;;;3.28;2.55;;;21.80;99.90;;;;;;6083138;23;20213;-76
2021/09/23 09:24:53;;;;;;;2.50;2.30;;;21.70;99.90;;;;;;6085336;23;20755;-76
2021/09/23 09:27:33;;;;;;;3.40;2.00;;;21.70;99.90;;;;;;6085777;23;20658;-76
2021/09/23 09:30:04;;;;;;;2.30;2.10;;;21.60;99.90;;;;;;6084967;23;20209;-76
2021/09/23 09:32:40;;;;;;;2.17;2.08;;;21.80;99.90;;;;;;6086170;23;20503;-76
2021/09/23 09:35:10;;;;;;;2.47;2.28;;;21.80;99.90;;;;;;6085792;23;20264;-76
2021/09/23 09:37:42;;;;;;;2.47;2.20;;;21.70;99.90;;;;;;6084300;23;20276;-76
2021/09/23 09:40:15;;;;;;;2.20;2.00;;;21.50;99.90;;;;;;6086550;23;20276;-78
2021/09/23 09:42:44;;;;;;;2.28;2.08;;;21.90;99.90;;;;;;6085220;23;20610;-76
2021/09/23 09:45:19;;;;;;;5.30;2.47;;;22.30;99.90;;;;;;6085869;23;20282;-77
2021/09/23 09:47:52;;;;;;;2.22;2.03;;;22.50;99.90;;;;;;6084161;23;20252;-76
2021/09/23 09:50:21;;;;;;;2.70;2.50;;;22.60;99.90;;;;;;6085302;23;20211;-76
2021/09/23 09:52:51;;;;;;;3.35;2.83;;;22.30;99.90;;;;;;6084720;23;20209;-77
2021/09/23 09:55:19;;;;;;;3.10;2.28;;;21.80;99.90;;;;;;6084896;23;20205;-76
2021/09/23 09:57:48;;;;;;;2.22;2.00;;;21.40;99.90;;;;;;6084977;23;20674;-76
2021/09/23 10:00:17;;;;;;;2.55;2.38;;;21.40;99.90;;;;;;6083676;23;20575;-76
2021/09/23 10:02:44;;;;;;;2.20;2.10;;;21.40;99.90;;;;;;6085046;23;20241;-76
2021/09/23 10:05:13;;;;;;;2.42;2.22;;;21.30;99.90;;;;;;6085400;23;20205;-76
2021/09/23 10:07:44;;;;;;;3.85;2.25;;;21.40;99.90;;;;;;6084523;23;20228;-76
2021/09/23 10:10:13;;;;;;;2.65;2.45;;;21.40;99.90;;;;;;6085230;23;20209;-76
2021/09/23 10:12:41;;;;;;;2.50;2.30;;;21.40;99.90;;;;;;6085449;23;20693;-77
2021/09/23 10:15:10;;;;;;;2.40;2.20;;;21.30;99.90;;;;;;6085428;23;20213;-76
2021/09/23 10:17:37;;;;;;;4.18;2.60;;;21.70;99.90;;;;;;6083750;23;20209;-77
2021/09/23 10:20:07;;;;;;;2.50;2.30;;;22.00;99.90;;;;;;6086011;23;20626;-76
2021/09/23 10:22:34;;;;;;;2.90;2.60;;;22.00;99.90;;;;;;6083471;23;20216;-77
2021/09/23 10:25:04;;;;;;;2.40;2.20;;;22.00;99.90;;;;;;6085489;23;20209;-76
2021/09/23 10:30:19;;;;;;;4.07;2.20;;;22.20;99.90;;;;;;6084442;23;20204;-77
2021/09/23 10:32:47;;;;;;;2.92;2.63;;;22.20;99.90;;;;;;6085938;23;20665;-77
2021/09/23 10:35:15;;;;;;;3.05;2.80;;;21.90;99.90;;;;;;6085907;23;20245;-77
2021/09/23 10:37:43;;;;;;;3.30;2.70;;;21.80;99.90;;;;;;6083971;23;20527;-77
2021/09/23 10:40:11;;;;;;;3.13;2.45;;;22.10;99.90;;;;;;6084994;23;20205;-77
2021/09/23 10:42:41;;;;;;;2.65;2.45;;;22.00;99.90;;;;;;6084837;23;20697;-77
2021/09/23 10:45:09;;;;;;;2.60;2.38;;;22.00;99.90;;;;;;6085967;23;20205;-77
2021/09/23 10:47:38;;;;;;;2.45;2.25;;;22.20;99.90;;;;;;6084602;23;20205;-77
2021/09/23 10:50:07;;;;;;;2.72;2.35;;;22.60;99.90;;;;;;6084700;23;20220;-77
2021/09/23 10:52:36;;;;;;;4.72;2.47;;;23.10;99.90;;;;;;6084331;23;20220;-77
2021/09/23 10:55:05;;;;;;;5.53;2.30;;;23.40;99.90;;;;;;6086549;23;20208;-77
2021/09/23 10:57:33;;;;;;;3.00;2.80;;;23.70;99.90;;;;;;6085090;23;20213;-77
2021/09/23 11:00:05;;;;;;;3.70;3.40;;;24.10;99.90;;;;;;6085237;23;20205;-77
2021/09/23 11:02:33;;;;;;;4.30;3.90;;;24.00;99.90;;;;;;6084004;23;20265;-77
2021/09/23 11:05:02;;;;;;;5.53;4.18;;;23.70;99.90;;;;;;6084586;23;20752;-77
2021/09/23 11:07:30;;;;;;;4.10;3.70;;;23.40;99.90;;;;;;6084852;23;20221;-77
2021/09/23 11:10:11;;;;;;;5.35;3.90;;;23.30;99.90;;;;;;6085812;23;20206;-77
2021/09/23 11:12:39;;;;;;;3.65;3.35;;;23.20;99.90;;;;;;6085011;23;20265;-77
2021/09/23 11:15:10;;;;;;;3.90;3.60;;;23.30;99.90;;;;;;6084921;23;20265;-77
2021/09/23 11:17:39;;;;;;;4.38;4.00;;;23.80;99.90;;;;;;6084281;23;20272;-77
2021/09/23 11:20:08;;;;;;;3.50;3.20;;;24.10;99.90;;;;;;6085557;23;20204;-77
2021/09/23 11:22:38;;;;;;;3.42;3.00;;;24.10;99.90;;;;;;6085394;23;20260;-77
2021/09/23 11:25:08;;;;;;;4.15;3.78;;;24.10;99.90;;;;;;6087778;23;20205;-79
2021/09/23 11:27:37;;;;;;;3.53;3.25;;;23.90;99.90;;;;;;6085971;23;20579;-77
2021/09/23 11:30:08;;;;;;;3.65;2.88;;;23.70;99.90;;;;;;6087470;23;20714;-77
2021/09/23 11:32:49;;;;;;;3.40;3.17;;;23.70;99.90;;;;;;6086378;23;20240;-77
2021/09/23 11:35:16;;;;;;;4.72;3.35;;;23.50;99.90;;;;;;6087548;23;20213;-77
2021/09/23 11:37:43;;;;;;;4.57;4.18;;;23.50;99.90;;;;;;6084384;23;20268;-77
2021/09/23 11:40:12;;;;;;;3.63;3.33;;;23.40;99.90;;;;;;6085134;23;20260;-77
2021/09/23 11:42:43;;;;;;;2.83;2.63;;;23.20;99.90;;;;;;6085318;23;20210;-77
2021/09/23 11:45:15;;;;;;;3.10;2.80;;;23.30;99.90;;;;;;6086725;23;20276;-77
2021/09/23 11:47:50;;;;;;;3.17;2.53;;;23.30;99.90;;;;;;6085752;23;20217;-77
2021/09/23 11:50:33;;;;;;;2.70;2.50;;;23.30;99.90;;;;;;6086601;23;20217;-77
2021/09/23 11:53:04;;;;;;;2.78;2.58;;;23.40;99.90;;;;;;6081594;23;20197;-78
2021/09/23 11:55:33;;;;;;;3.55;2.70;;;23.30;99.90;;;;;;6085164;23;20243;-77
2021/09/23 11:58:03;;;;;;;2.55;2.35;;;23.20;99.90;;;;;;6085029;23;20682;-77
2021/09/23 12:00:37;;;;;;;2.97;2.53;;;23.30;99.90;;;;;;6084088;23;20276;-77
2021/09/23 12:03:05;;;;;;;2.50;2.30;;;23.30;99.90;;;;;;6085349;23;20200;-77
2021/09/23 12:05:32;;;;;;;2.97;2.50;;;23.10;99.90;;;;;;6085151;23;20213;-77
2021/09/23 12:08:10;;;;;;;2.83;2.63;;;23.00;99.90;;;;;;6084819;23;20205;-77
2021/09/23 12:10:52;;;;;;;3.10;2.80;;;23.00;99.90;;;;;;6085619;23;20213;-77
2021/09/23 12:13:28;;;;;;;3.17;2.88;;;23.00;99.90;;;;;;6085924;23;20202;-77
2021/09/23 12:15:58;;;;;;;2.47;2.28;;;22.80;99.90;;;;;;6084520;23;20212;-77
2021/09/23 12:18:28;;;;;;;3.53;2.83;;;22.80;99.90;;;;;;6085469;23;20256;-77
2021/09/23 12:20:58;;;;;;;3.83;2.92;;;22.70;99.90;;;;;;6086468;23;20310;-77
2021/09/23 12:23:34;;;;;;;3.40;3.10;;;22.80;99.90;;;;;;6085526;23;20502;-77
2021/09/23 12:26:13;;;;;;;3.47;3.17;;;22.70;99.90;;;;;;6085408;23;20216;-77
2021/09/23 12:28:45;;;;;;;2.50;2.40;;;22.60;99.90;;;;;;6084748;23;20209;-78
2021/09/23 12:31:15;;;;;;;3.97;2.88;;;22.50;99.90;;;;;;6085843;23;20857;-77
2021/09/23 12:33:54;;;;;;;2.80;2.60;;;22.50;99.90;;;;;;6085283;23;20213;-77
2021/09/23 12:36:27;;;;;;;3.22;2.85;;;22.50;99.90;;;;;;6084834;23;20518;-77
2021/09/23 12:39:19;;;;;;;2.95;2.75;;;22.50;99.90;;;;;;6084842;23;20205;-78
2021/09/23 12:42:09;;;;;;;3.10;2.90;;;22.60;99.90;;;;;;6085541;23;20351;-77
2021/09/23 12:44:38;;;;;;;3.00;2.80;;;22.60;99.90;;;;;;6085064;23;20206;-77
2021/09/23 12:47:12;;;;;;;4.18;3.10;;;22.60;99.90;;;;;;6049611;23;20206;-77
2021/09/23 12:49:41;;;;;;;3.20;3.00;;;22.70;99.90;;;;;;6104860;23;20636;-77
2021/09/23 12:52:20;;;;;;;3.45;2.72;;;22.50;99.90;;;;;;6086002;23;20575;-77
2021/09/23 12:54:53;;;;;;;3.70;3.40;;;22.50;99.90;;;;;;6085016;23;20209;-77
2021/09/23 12:57:22;;;;;;;3.50;3.20;;;22.50;99.90;;;;;;6084852;23;20709;-77